createdAt,value
2023-05-08T00:00:35.278Z,20.8
2023-05-08T00:20:35.468Z,20.8
2023-05-08T00:40:35.348Z,20.7
2023-05-08T01:00:38.581Z,20.6
2023-05-08T01:20:34.750Z,20.6
2023-05-08T01:40:34.937Z,20.6
2023-05-08T02:00:35.664Z,20.5
2023-05-08T02:20:35.350Z,20.5
2023-05-08T02:40:35.510Z,20.4
2023-05-08T03:00:35.934Z,20.4
2023-05-08T03:20:35.880Z,20.4
2023-05-08T03:40:35.337Z,20.3
2023-05-08T04:00:36.570Z,20.3
2023-05-08T04:20:37.818Z,20.2
2023-05-08T04:40:34.600Z,20.2
2023-05-08T05:00:51.982Z,20.2
2023-05-08T05:20:57.546Z,20.3
2023-05-08T05:40:58.421Z,20.3
2023-05-08T06:00:55.508Z,20.3
2023-05-08T06:20:52.323Z,20.3
2023-05-08T06:40:52.899Z,20.3
2023-05-08T07:00:52.357Z,20.3
2023-05-08T07:20:51.846Z,20.4
2023-05-08T07:40:52.386Z,20.4
2023-05-08T08:00:58.084Z,20.5
2023-05-08T08:20:52.510Z,20.5
2023-05-08T08:40:53.716Z,20.5
2023-05-08T09:00:52.287Z,20.5
2023-05-08T09:20:52.151Z,20.6
2023-05-08T09:40:51.604Z,20.6
2023-05-08T10:00:51.688Z,20.7
2023-05-08T10:20:52.114Z,20.8
2023-05-08T10:40:52.115Z,20.8
2023-05-08T11:00:53.030Z,20.9
2023-05-08T11:20:58.394Z,20.9
2023-05-08T11:40:53.222Z,20.8
2023-05-08T12:00:57.352Z,20.9
2023-05-08T12:20:52.155Z,20.9
2023-05-08T12:40:53.176Z,21
2023-05-08T13:00:51.953Z,21.1
2023-05-08T13:20:50.774Z,21.1
2023-05-08T13:40:55.571Z,21.3
2023-05-08T14:00:58.148Z,21.3
2023-05-08T14:21:08.056Z,21.3
2023-05-08T14:40:58.814Z,21.4
2023-05-08T15:00:49.276Z,21.3
2023-05-08T15:20:53.473Z,21.4
2023-05-08T15:40:54.631Z,21.5
2023-05-08T16:00:57.536Z,21.5
2023-05-08T16:20:51.490Z,21.5
2023-05-08T16:40:57.073Z,21.4
2023-05-08T17:00:53.686Z,21.4
2023-05-08T17:20:52.344Z,21.3
2023-05-08T17:40:51.885Z,21
2023-05-08T18:00:55.737Z,20.9
2023-05-08T18:20:58.523Z,21.1
2023-05-08T18:40:53.160Z,21.1
2023-05-08T19:00:35.128Z,21.2
2023-05-08T19:20:35.651Z,21.2
2023-05-08T19:40:41.265Z,21.2
2023-05-08T20:00:35.044Z,21.2
2023-05-08T20:20:34.886Z,21.2
2023-05-08T20:40:35.206Z,21.2
2023-05-08T21:00:34.883Z,21.2
2023-05-08T21:20:34.687Z,21.1
2023-05-08T21:40:35.864Z,21.1
2023-05-08T22:00:48.185Z,21
2023-05-08T22:20:34.929Z,21
2023-05-08T22:40:36.540Z,21
2023-05-08T23:00:37.838Z,20.9
2023-05-08T23:20:36.100Z,20.9
2023-05-08T23:40:35.296Z,20.8
